createdAt,value
2023-04-04T00:00:12.353Z,2.88
2023-04-04T00:05:14.353Z,3.25
2023-04-04T00:10:16.430Z,3.45
2023-04-04T00:15:18.474Z,3.20
2023-04-04T00:20:20.521Z,2.97
2023-04-04T00:25:22.549Z,3.00
2023-04-04T00:30:24.590Z,2.58
2023-04-04T00:35:26.775Z,2.83
2023-04-04T00:40:28.962Z,2.47
2023-04-04T00:45:31.419Z,2.72
2023-04-04T00:50:33.706Z,2.85
2023-04-04T00:55:39.483Z,2.65
2023-04-04T01:00:41.707Z,3.03
2023-04-04T01:05:43.853Z,2.80
2023-04-04T01:10:46.456Z,2.70
2023-04-04T01:15:48.882Z,3.10
2023-04-04T01:21:00.298Z,2.88
2023-04-04T01:26:04.034Z,3.20
2023-04-04T01:31:12.661Z,3.13
2023-04-04T01:36:41.757Z,3.00
2023-04-04T01:41:48.378Z,3.22
2023-04-04T01:46:55.046Z,3.05
2023-04-04T01:51:57.573Z,3.30
2023-04-04T01:56:59.709Z,3.42
2023-04-04T02:02:01.952Z,3.20
2023-04-04T02:07:04.521Z,3.38
2023-04-04T02:12:08.288Z,3.13
2023-04-04T02:17:10.824Z,3.25
2023-04-04T02:22:13.025Z,3.22
2023-04-04T02:27:15.248Z,3.80
2023-04-04T02:32:18.309Z,3.85
2023-04-04T02:37:20.558Z,3.28
2023-04-04T02:42:26.600Z,4.00
2023-04-04T02:47:30.039Z,3.60
2023-04-04T02:52:32.997Z,3.20
2023-04-04T02:57:41.721Z,3.13
2023-04-04T03:02:44.161Z,3.25
2023-04-04T03:07:46.858Z,3.63
2023-04-04T03:12:49.077Z,3.85
2023-04-04T03:17:52.761Z,5.72
2023-04-04T03:22:58.510Z,4.45
2023-04-04T03:28:09.775Z,4.95
2023-04-04T03:33:12.250Z,4.03
2023-04-04T03:38:14.412Z,3.70
2023-04-04T03:43:16.536Z,4.10
2023-04-04T03:48:18.763Z,4.53
2023-04-04T03:53:20.836Z,3.95
2023-04-04T03:58:23.520Z,4.28
2023-04-04T04:03:26.990Z,4.05
2023-04-04T04:08:30.287Z,3.67
2023-04-04T04:13:32.555Z,4.20
2023-04-04T04:18:34.625Z,4.60
2023-04-04T04:23:38.368Z,4.07
2023-04-04T04:28:40.486Z,4.10
2023-04-04T04:33:48.734Z,3.95
2023-04-04T04:38:53.070Z,4.07
2023-04-04T04:43:56.096Z,3.80
2023-04-04T04:49:01.052Z,4.38
2023-04-04T04:54:06.038Z,3.85
2023-04-04T04:59:09.043Z,4.38
2023-04-04T05:04:17.498Z,5.13
2023-04-04T05:09:31.896Z,4.50
2023-04-04T05:14:34.465Z,4.60
2023-04-04T05:19:36.628Z,5.40
2023-04-04T05:24:40.356Z,6.25
2023-04-04T05:29:42.656Z,6.20
2023-04-04T05:34:44.967Z,6.18
2023-04-04T05:39:51.839Z,5.72
2023-04-04T05:44:54.285Z,5.82
2023-04-04T05:49:57.832Z,5.72
2023-04-04T05:55:00.293Z,5.95
2023-04-04T06:00:06.055Z,6.07
2023-04-04T06:05:16.888Z,5.28
2023-04-04T06:10:19.656Z,5.60
2023-04-04T06:15:21.896Z,5.63
2023-04-04T06:20:24.166Z,6.25
2023-04-04T06:25:28.513Z,6.35
2023-04-04T06:30:38.181Z,5.90
2023-04-04T06:35:42.438Z,5.55
2023-04-04T06:40:46.400Z,5.53
2023-04-04T06:45:49.217Z,5.13
2023-04-04T06:50:54.852Z,5.13
2023-04-04T06:55:57.421Z,4.88
2023-04-04T07:00:59.844Z,5.35
2023-04-04T07:06:05.458Z,4.97
2023-04-04T07:11:08.075Z,4.88
2023-04-04T07:16:11.695Z,5.43
2023-04-04T07:21:13.787Z,5.82
2023-04-04T07:26:18.736Z,5.25
2023-04-04T07:31:21.260Z,5.10
2023-04-04T07:36:23.337Z,4.78
2023-04-04T07:41:26.241Z,4.95
2023-04-04T07:46:28.274Z,4.40
2023-04-04T07:51:31.305Z,3.85
2023-04-04T07:56:33.410Z,4.28
2023-04-04T08:01:35.767Z,4.50
2023-04-04T08:06:38.809Z,4.35
2023-04-04T08:11:41.139Z,4.70
2023-04-04T08:16:43.278Z,4.65
2023-04-04T08:21:46.168Z,4.63
2023-04-04T08:26:51.844Z,3.35
2023-04-04T08:32:05.116Z,3.25
2023-04-04T08:37:08.241Z,2.90
2023-04-04T08:42:10.747Z,2.70
2023-04-04T08:47:13.452Z,2.88
2023-04-04T08:52:19.526Z,2.65
2023-04-04T08:57:22.248Z,2.78
2023-04-04T09:02:36.994Z,2.28
2023-04-04T09:07:39.941Z,2.75
2023-04-04T09:12:45.508Z,2.30
2023-04-04T09:17:47.615Z,2.75
2023-04-04T09:22:49.845Z,2.25
2023-04-04T09:27:56.032Z,2.30
2023-04-04T09:33:07.344Z,2.50
2023-04-04T09:38:09.703Z,2.20
2023-04-04T09:43:13.238Z,3.15
2023-04-04T09:48:27.208Z,2.65
2023-04-04T09:53:29.524Z,2.70
2023-04-04T09:58:36.309Z,2.50
2023-04-04T10:03:39.760Z,3.05
2023-04-04T10:08:43.168Z,2.75
2023-04-04T10:13:46.711Z,2.88
2023-04-04T10:18:49.064Z,2.92
2023-04-04T10:23:52.933Z,2.60
2023-04-04T10:28:56.182Z,3.40
2023-04-04T10:34:12.637Z,2.85
2023-04-04T10:39:26.035Z,2.50
2023-04-04T10:44:28.038Z,2.78
2023-04-04T10:49:30.984Z,2.65
2023-04-04T10:54:33.809Z,2.33
2023-04-04T11:00:07.623Z,2.22
2023-04-04T11:05:17.305Z,2.20
2023-04-04T11:10:25.486Z,2.47
2023-04-04T11:15:27.564Z,2.40
2023-04-04T11:20:31.070Z,2.30
2023-04-04T11:25:38.173Z,2.78
2023-04-04T11:30:48.954Z,2.20
2023-04-04T11:35:51.208Z,2.47
2023-04-04T11:40:54.827Z,2.47
2023-04-04T11:46:08.200Z,2.25
2023-04-04T11:51:11.591Z,2.17
2023-04-04T11:56:16.233Z,2.38
2023-04-04T12:01:20.428Z,2.40
2023-04-04T12:06:22.511Z,2.03
2023-04-04T12:11:26.435Z,2.30
2023-04-04T12:16:29.121Z,2.42
2023-04-04T12:21:33.124Z,2.75
2023-04-04T12:26:40.835Z,2.75
2023-04-04T12:31:44.955Z,2.60
2023-04-04T12:36:56.021Z,2.17
2023-04-04T12:42:04.524Z,2.53
2023-04-04T12:47:08.572Z,2.58
2023-04-04T12:52:22.329Z,2.20
2023-04-04T12:57:27.466Z,2.60
2023-04-04T13:02:29.693Z,2.67
2023-04-04T13:07:38.987Z,2.42
2023-04-04T13:13:01.085Z,2.70
2023-04-04T13:18:14.980Z,2.40
2023-04-04T13:23:17.274Z,2.60
2023-04-04T13:28:19.417Z,2.38
2023-04-04T13:33:22.471Z,2.97
2023-04-04T13:38:26.974Z,2.67
2023-04-04T13:43:29.378Z,2.40
2023-04-04T13:48:31.528Z,2.63
2023-04-04T13:53:33.585Z,2.38
2023-04-04T13:58:35.578Z,2.45
2023-04-04T14:03:37.671Z,2.92
2023-04-04T14:08:40.272Z,2.40
2023-04-04T14:13:42.456Z,2.85
2023-04-04T14:18:44.672Z,3.00
2023-04-04T14:23:46.845Z,2.95
2023-04-04T14:28:48.947Z,2.80
2023-04-04T14:33:51.060Z,3.00
2023-04-04T14:38:53.108Z,3.13
2023-04-04T14:43:55.178Z,3.40
2023-04-04T14:48:57.224Z,3.35
2023-04-04T14:53:59.663Z,3.70
2023-04-04T14:59:05.144Z,5.60
2023-04-04T15:04:07.254Z,4.75
2023-04-04T15:09:09.676Z,3.92
2023-04-04T15:14:11.731Z,3.40
2023-04-04T15:19:13.826Z,3.28
2023-04-04T15:24:15.919Z,3.42
2023-04-04T15:29:18.020Z,3.40
2023-04-04T15:34:20.283Z,3.83
2023-04-04T15:39:22.543Z,3.40
2023-04-04T15:44:24.670Z,4.10
2023-04-04T15:49:27.097Z,3.72
2023-04-04T15:54:31.121Z,3.60
2023-04-04T15:59:33.504Z,3.58
2023-04-04T16:04:35.897Z,3.97
2023-04-04T16:09:38.434Z,3.93
2023-04-04T16:14:40.565Z,3.65
2023-04-04T16:19:42.609Z,4.57
2023-04-04T16:24:44.662Z,3.85
2023-04-04T16:29:47.089Z,4.15
2023-04-04T16:34:49.169Z,4.30
2023-04-04T16:39:51.925Z,4.00
2023-04-04T16:44:53.888Z,4.35
2023-04-04T16:49:56.116Z,4.50
2023-04-04T16:54:58.534Z,4.13
2023-04-04T17:00:06.536Z,4.60
2023-04-04T17:05:08.707Z,4.47
2023-04-04T17:10:12.041Z,4.75
2023-04-04T17:15:16.256Z,4.40
2023-04-04T17:20:19.477Z,4.82
2023-04-04T17:25:22.348Z,4.40
2023-04-04T17:30:27.153Z,4.75
2023-04-04T17:35:29.525Z,5.60
2023-04-04T17:40:31.644Z,4.78
2023-04-04T17:45:33.908Z,4.50
2023-04-04T17:50:36.167Z,4.90
2023-04-04T17:55:40.070Z,4.60
2023-04-04T18:00:42.498Z,5.10
2023-04-04T18:05:44.692Z,6.15
2023-04-04T18:10:46.680Z,6.15
2023-04-04T18:15:50.141Z,5.63
2023-04-04T18:20:54.367Z,5.68
2023-04-04T18:25:56.682Z,5.38
2023-04-04T18:30:59.600Z,5.72
2023-04-04T18:36:03.360Z,5.95
2023-04-04T18:41:05.741Z,6.28
2023-04-04T18:46:07.815Z,6.47
2023-04-04T18:51:09.845Z,9.55
2023-04-04T18:56:11.866Z,6.15
2023-04-04T19:01:16.371Z,6.18
2023-04-04T19:06:18.480Z,5.85
2023-04-04T19:11:20.570Z,5.60
2023-04-04T19:16:24.063Z,5.57
2023-04-04T19:21:26.315Z,6.07
2023-04-04T19:26:28.540Z,6.13
2023-04-04T19:31:32.960Z,6.97
2023-04-04T19:36:37.452Z,5.88
2023-04-04T19:41:40.916Z,6.10
2023-04-04T19:46:43.003Z,6.15
2023-04-04T19:51:52.429Z,6.55
2023-04-04T19:57:07.817Z,6.47
2023-04-04T20:02:39.196Z,6.35
2023-04-04T20:07:41.450Z,6.93
2023-04-04T20:12:43.514Z,6.88
2023-04-04T20:17:45.577Z,7.13
2023-04-04T20:22:47.622Z,6.88
2023-04-04T20:27:49.797Z,7.30
2023-04-04T20:32:52.017Z,6.85
2023-04-04T20:37:54.237Z,7.50
2023-04-04T20:42:56.296Z,6.95
2023-04-04T20:48:00.546Z,7.32
2023-04-04T20:53:04.814Z,6.95
2023-04-04T20:58:09.109Z,7.35
2023-04-04T21:03:29.896Z,6.55
2023-04-04T21:08:41.773Z,7.83
2023-04-04T21:13:44.510Z,7.35
2023-04-04T21:18:47.074Z,7.88
2023-04-04T21:23:56.708Z,7.85
2023-04-04T21:29:04.942Z,8.13
2023-04-04T21:34:12.735Z,8.48
2023-04-04T21:39:22.705Z,9.43
2023-04-04T21:44:25.491Z,8.63
2023-04-04T21:49:28.304Z,8.45
2023-04-04T21:54:30.344Z,9.52
2023-04-04T21:59:32.480Z,8.15
2023-04-04T22:04:34.594Z,8.93
2023-04-04T22:09:40.398Z,8.55
2023-04-04T22:14:43.736Z,7.38
2023-04-04T22:19:46.736Z,8.55
2023-04-04T22:24:50.963Z,8.25
2023-04-04T22:29:53.142Z,7.93
2023-04-04T22:34:55.284Z,9.05
2023-04-04T22:39:57.310Z,8.77
2023-04-04T22:44:59.329Z,8.25
2023-04-04T22:50:06.143Z,8.38
2023-04-04T22:55:08.358Z,8.02
2023-04-04T23:00:11.902Z,8.48
2023-04-04T23:05:16.054Z,8.82
2023-04-04T23:10:18.501Z,9.25
2023-04-04T23:15:20.568Z,9.80
2023-04-04T23:20:23.949Z,9.05
2023-04-04T23:25:26.463Z,9.77
2023-04-04T23:30:28.927Z,10.10
2023-04-04T23:35:31.072Z,9.73
2023-04-04T23:40:33.069Z,9.40
2023-04-04T23:45:37.240Z,9.43
2023-04-04T23:50:41.353Z,9.52
2023-04-04T23:55:43.514Z,10.30
